Laurent Verva

Laurent Verva

Statistiques 2026

  • Courses courues : 42
  • Nb de victoires : -
  • Nb de places : 1
  • Écart gagnant : 143
  • Réussite à la gagne : -
  • Réussite à la place : 2%
Musique : 0a 8a 4a 6a 6a 0a 5a 5a Da 2a 9a 6a 5a Da 6a 0a 7a 4a
DateRangCatégorieAlloc.Dist.HippodromeChevalRed. KmSpé.
15/10/18 3 Trot 15 000€ 2 700m Le Croise Laroche Epona des Neuzy 1'16"5 Attelé
15/10/18 8 Trot 25 000€ 2 850m Le Croise Laroche Felix du Bourg 1'14"0 Attelé
15/10/18 0 Trot 18 000€ 2 825m Le Croise Laroche Carre Chic Attelé
15/10/18 0 Trot 25 000€ 2 825m Le Croise Laroche Carlton de Viette Attelé
14/10/18 4 Trot 13 000€ 2 750m La Capelle Farca Sly 1'17"3 Attelé
14/10/18 0 Trot 30 000€ 2 700m La Capelle Amio Josselyn Attelé
11/10/18 D Trot 20 000€ 2 600m Reims Elliot d'Alci Attelé
11/10/18 4 Trot 24 000€ 2 575m Reims Au Temps Dubonheur 1'14"3 Attelé
11/10/18 D Trot 32 000€ 2 550m Reims Aladin Pierji Attelé
08/10/18 7 Trot 17 000€ 2 825m Le Croise Laroche Bilingue d'Alci 1'15"1 Attelé
06/10/18 6 Trot 20 000€ 2 400m Amiens Dollar de l'Iton 1'16"7 Attelé
06/10/18 7 Trot 21 000€ 2 900m Amiens Cyrus d'Alci 1'18"3 Attelé
06/10/18 D Trot 15 000€ 2 400m Amiens Ellamika Attelé
06/10/18 6 Trot 13 000€ 2 400m Amiens Fonceuse du Biston 1'17"7 Attelé
05/10/18 4 Trot 12 000€ 2 850m Mauquenchy Fifi Imperatrice 1'19"1 Attelé
05/10/18 2 Trot 12 000€ 2 850m Mauquenchy Flamme Mencourt 1'18"4 Attelé
05/10/18 6 Trot 13 000€ 2 850m Mauquenchy Forrest d'Arc 1'17"9 Attelé
05/10/18 4 Trot 12 000€ 2 850m Mauquenchy Epona des Neuzy 1'17"5 Attelé
05/10/18 8 Trot 15 000€ 2 850m Mauquenchy Damysos d'Awagne 1'17"0 Attelé
05/10/18 1 Trot 22 000€ 2 875m Mauquenchy Comedy Jet 1'13"9 Attelé
30/09/18 6 Trot 13 000€ 2 750m La Capelle Fiston d'hertals 1'18"7 Attelé
30/09/18 6 Trot 18 000€ 2 700m La Capelle Charly d'Ommeel 1'16"0 Attelé
30/09/18 6 Trot 25 000€ 2 775m La Capelle Dorus Well 1'14"3 Attelé
30/09/18 0 Trot 15 000€ 2 750m La Capelle Elixir Neslois Attelé
30/09/18 2 Trot 15 000€ 2 000m La Capelle Geisha d'Arbaz 1'17"8 Attelé
29/09/18 1 Trot 15 000€ 2 700m Le Croise Laroche Fire Bird 1'17"4 Attelé
29/09/18 2 Trot 20 000€ 2 700m Le Croise Laroche Divin de Bougy 1'15"1 Attelé
29/09/18 0 Trot 30 000€ 2 700m Le Croise Laroche Atout du Hainaut Attelé
27/09/18 2 Trot 20 000€ 2 950m Toulouse Eros In Love 1'16"4 Attelé
24/09/18 0 Trot 20 000€ 2 850m Le Croise Laroche Elokai Attelé
24/09/18 D Trot 20 000€ 2 825m Le Croise Laroche Etoile Dubonheur Attelé
24/09/18 2 Trot 19 000€ 2 700m Le Croise Laroche Daisy de la Folie 1'16"7 Attelé
24/09/18 0 Trot 20 000€ 2 700m Le Croise Laroche Cannelle d'As Attelé
23/09/18 7 Trot 12 000€ 2 625m Saint Omer Ezekiel Okina 1'21"9 Attelé
23/09/18 4 Trot 12 000€ 2 625m Saint Omer Excelebration 1'20"6 Attelé
23/09/18 2 Trot 12 000€ 2 625m Saint Omer Filae des Salines 1'23"7 Attelé
23/09/18 3 Trot 12 000€ 2 625m Saint Omer Fleur du Ramierou 1'22"1 Attelé
23/09/18 2 Trot 12 000€ 2 625m Saint Omer Erythia 1'23"0 Attelé
23/09/18 6 Trot 12 000€ 2 625m Saint Omer Etoile d'Ocque 1'23"8 Attelé
23/09/18 4 Trot 12 000€ 2 625m Saint Omer Fiston d'hertals 1'24"6 Attelé
23/09/18 1 Trot 12 000€ 2 625m Saint Omer Flashback Syga 1'24"5 Attelé
22/09/18 6 Trot 19 000€ 2 875m Mauquenchy Dauphine d'Alci 1'16"6 Attelé
22/09/18 4 Trot 25 000€ 2 850m Mauquenchy Cyrus d'Alci 1'15"2 Attelé
20/09/18 5 Trot 23 000€ 2 650m Lyon La Soie Altesse d'Ardennes 1'14"5 Attelé
17/09/18 5 Trot 18 000€ 2 750m Cabourg Flamme Mencourt 1'17"1 Attelé
14/09/18 0 Trot 15 000€ 2 700m Le Croise Laroche Etoile Dubonheur Attelé
14/09/18 3 Trot 20 000€ 2 700m Le Croise Laroche Diego du Houlet 1'15"8 Attelé
13/09/18 0 Trot 22 000€ 2 600m Reims Frivole d'Arbaz Attelé
13/09/18 6 Trot 20 000€ 2 600m Reims Elisee du Pont 1'16"4 Attelé
13/09/18 6 Trot 20 000€ 2 600m Reims Dollar de l'Iton 1'15"5 Attelé